sensor_id;sensor_type;location;lat;lon;timestamp;pressure;altitude;pressure_sealevel;temperature;humidity
65905;BME280;56275;49.802;24.020;2022-09-24T00:00:03;97428.31;;;21.69;53.21
65905;BME280;56275;49.802;24.020;2022-09-24T00:02:55;97422.16;;;21.69;53.09
65905;BME280;56275;49.802;24.020;2022-09-24T00:05:47;97415.09;;;21.69;52.95
65905;BME280;56275;49.802;24.020;2022-09-24T00:08:40;97420.38;;;21.69;53.13
65905;BME280;56275;49.802;24.020;2022-09-24T00:11:32;97411.56;;;21.69;53.04
65905;BME280;56275;49.802;24.020;2022-09-24T00:14:24;97399.22;;;21.69;53.18
65905;BME280;56275;49.802;24.020;2022-09-24T00:17:16;97405.38;;;21.70;52.95
65905;BME280;56275;49.802;24.020;2022-09-24T00:20:07;97401.88;;;21.69;53.10
65905;BME280;56275;49.802;24.020;2022-09-24T00:23:00;97397.47;;;21.68;53.21
65905;BME280;56275;49.802;24.020;2022-09-24T00:25:52;97397.47;;;21.68;53.07
65905;BME280;56275;49.802;24.020;2022-09-24T00:29:02;97400.13;;;21.67;53.25
65905;BME280;56275;49.802;24.020;2022-09-24T00:31:54;97397.53;;;21.65;53.06
65905;BME280;56275;49.802;24.020;2022-09-24T00:34:46;97392.25;;;21.65;53.15
65905;BME280;56275;49.802;24.020;2022-09-24T00:37:37;97398.44;;;21.64;53.01
65905;BME280;56275;49.802;24.020;2022-09-24T00:40:30;97403.69;;;21.66;53.23
65905;BME280;56275;49.802;24.020;2022-09-24T00:43:24;97394.94;;;21.64;53.21
65905;BME280;56275;49.802;24.020;2022-09-24T00:49:26;97401.09;;;21.64;53.06
65905;BME280;56275;49.802;24.020;2022-09-24T00:52:18;97402.84;;;21.64;53.01
65905;BME280;56275;49.802;24.020;2022-09-24T00:55:11;97398.47;;;21.63;53.16
65905;BME280;56275;49.802;24.020;2022-09-24T00:58:05;97395.84;;;21.63;52.96
65905;BME280;56275;49.802;24.020;2022-09-24T01:01:04;97398.47;;;21.63;52.99
65905;BME280;56275;49.802;24.020;2022-09-24T01:03:56;97398.56;;;21.58;53.06
65905;BME280;56275;49.802;24.020;2022-09-24T01:06:49;97387.03;;;21.61;52.96
65905;BME280;56275;49.802;24.020;2022-09-24T01:09:34;97390.59;;;21.60;52.88
65905;BME280;56275;49.802;24.020;2022-09-24T01:12:50;97392.31;;;21.61;52.94
65905;BME280;56275;49.802;24.020;2022-09-24T01:15:43;97392.34;;;21.59;52.95
65905;BME280;56275;49.802;24.020;2022-09-24T01:21:46;97392.41;;;21.58;52.89
65905;BME280;56275;49.802;24.020;2022-09-24T01:30:50;97382.72;;;21.57;53.13
65905;BME280;56275;49.802;24.020;2022-09-24T01:33:38;97385.38;;;21.57;53.01
65905;BME280;56275;49.802;24.020;2022-09-24T01:36:26;97382.72;;;21.57;52.99
65905;BME280;56275;49.802;24.020;2022-09-24T01:39:12;97386.25;;;21.57;52.95
65905;BME280;56275;49.802;24.020;2022-09-24T01:41:58;97383.59;;;21.57;52.82
65905;BME280;56275;49.802;24.020;2022-09-24T01:44:51;97381.81;;;21.58;53.16
65905;BME280;56275;49.802;24.020;2022-09-24T01:47:43;97376.53;;;21.58;53.04
65905;BME280;56275;49.802;24.020;2022-09-24T01:50:59;97387.09;;;21.58;52.86
65905;BME280;56275;49.802;24.020;2022-09-24T01:54:06;97377.44;;;21.57;52.95
65905;BME280;56275;49.802;24.020;2022-09-24T01:57:06;97381.00;;;21.56;53.03
65905;BME280;56275;49.802;24.020;2022-09-24T02:00:07;97381.00;;;21.56;53.03
65905;BME280;56275;49.802;24.020;2022-09-24T02:03:21;97380.09;;;21.57;53.25
65905;BME280;56275;49.802;24.020;2022-09-24T02:06:25;97375.72;;;21.56;52.85
65905;BME280;56275;49.802;24.020;2022-09-24T02:09:36;97374.84;;;21.53;52.98
65905;BME280;56275;49.802;24.020;2022-09-24T02:12:28;97375.75;;;21.54;52.77
65905;BME280;56275;49.802;24.020;2022-09-24T02:15:27;97371.34;;;21.53;53.03
65905;BME280;56275;49.802;24.020;2022-09-24T02:18:16;97366.03;;;21.53;52.99
65905;BME280;56275;49.802;24.020;2022-09-24T02:21:14;97374.88;;;21.52;52.91
65905;BME280;56275;49.802;24.020;2022-09-24T02:24:46;97373.09;;;21.52;52.95
65905;BME280;56275;49.802;24.020;2022-09-24T02:27:10;97374.00;;;21.51;52.70
65905;BME280;56275;49.802;24.020;2022-09-24T02:29:57;97374.91;;;21.50;53.01
65905;BME280;56275;49.802;24.020;2022-09-24T02:32:51;97377.56;;;21.50;52.85
65905;BME280;56275;49.802;24.020;2022-09-24T02:35:44;97381.13;;;21.49;52.96
65905;BME280;56275;49.802;24.020;2022-09-24T02:38:29;97381.97;;;21.50;52.99
65905;BME280;56275;49.802;24.020;2022-09-24T02:41:21;97383.72;;;21.51;52.75
65905;BME280;56275;49.802;24.020;2022-09-24T02:44:08;97389.91;;;21.50;52.88
65905;BME280;56275;49.802;24.020;2022-09-24T02:46:53;97386.41;;;21.49;52.96
65905;BME280;56275;49.802;24.020;2022-09-24T02:49:44;97384.66;;;21.48;52.82
65905;BME280;56275;49.802;24.020;2022-09-24T02:52:35;97382.03;;;21.48;53.00
65905;BME280;56275;49.802;24.020;2022-09-24T02:55:21;97384.66;;;21.48;52.80
65905;BME280;56275;49.802;24.020;2022-09-24T02:58:12;97382.03;;;21.48;52.92
65905;BME280;56275;49.802;24.020;2022-09-24T03:00:57;97378.50;;;21.48;52.66
65905;BME280;56275;49.802;24.020;2022-09-24T03:03:42;97377.63;;;21.47;52.71
65905;BME280;56275;49.802;24.020;2022-09-24T03:06:34;97380.28;;;21.47;52.59
65905;BME280;56275;49.802;24.020;2022-09-24T03:09:26;97382.03;;;21.47;52.65
65905;BME280;56275;49.802;24.020;2022-09-24T03:12:11;97375.88;;;21.46;52.84
65905;BME280;56275;49.802;24.020;2022-09-24T03:15:03;97385.56;;;21.47;52.64
65905;BME280;56275;49.802;24.020;2022-09-24T03:17:49;97381.16;;;21.46;52.65
65905;BME280;56275;49.802;24.020;2022-09-24T03:20:34;97377.66;;;21.46;52.66
65905;BME280;56275;49.802;24.020;2022-09-24T03:23:25;97375.91;;;21.45;52.85
65905;BME280;56275;49.802;24.020;2022-09-24T03:26:17;97373.25;;;21.45;52.72
65905;BME280;56275;49.802;24.020;2022-09-24T03:29:02;97373.25;;;21.45;52.80
65905;BME280;56275;49.802;24.020;2022-09-24T03:31:52;97375.03;;;21.44;52.59
65905;BME280;56275;49.802;24.020;2022-09-24T03:34:37;97370.66;;;21.43;52.59
65905;BME280;56275;49.802;24.020;2022-09-24T03:37:22;97368.94;;;21.42;52.71
65905;BME280;56275;49.802;24.020;2022-09-24T03:40:14;97372.44;;;21.43;52.74
65905;BME280;56275;49.802;24.020;2022-09-24T03:42:59;97378.59;;;21.43;52.66
65905;BME280;56275;49.802;24.020;2022-09-24T03:45:44;97373.34;;;21.42;52.78
65905;BME280;56275;49.802;24.020;2022-09-24T03:48:29;97378.63;;;21.42;52.73
65905;BME280;56275;49.802;24.020;2022-09-24T03:51:16;97381.22;;;21.43;52.80
65905;BME280;56275;49.802;24.020;2022-09-24T03:54:04;97376.88;;;21.41;52.55
65905;BME280;56275;49.802;24.020;2022-09-24T03:56:49;97384.78;;;21.42;52.55
65905;BME280;56275;49.802;24.020;2022-09-24T03:59:34;97383.91;;;21.42;52.52
65905;BME280;56275;49.802;24.020;2022-09-24T04:02:19;97383.03;;;21.41;52.45
65905;BME280;56275;49.802;24.020;2022-09-24T04:05:12;97394.47;;;21.42;52.45
65905;BME280;56275;49.802;24.020;2022-09-24T04:07:58;97393.63;;;21.41;52.69
65905;BME280;56275;49.802;24.020;2022-09-24T04:10:44;97397.13;;;21.40;52.73
65905;BME280;56275;49.802;24.020;2022-09-24T04:13:30;97396.31;;;21.38;52.60
65905;BME280;56275;49.802;24.020;2022-09-24T04:16:16;97405.97;;;21.39;52.69
65905;BME280;56275;49.802;24.020;2022-09-24T04:19:08;97393.66;;;21.38;52.48
65905;BME280;56275;49.802;24.020;2022-09-24T04:21:58;97395.44;;;21.38;52.44
65905;BME280;56275;49.802;24.020;2022-09-24T04:24:50;97400.72;;;21.38;52.63
65905;BME280;56275;49.802;24.020;2022-09-24T04:27:35;97400.72;;;21.38;52.53
65905;BME280;56275;49.802;24.020;2022-09-24T04:30:20;97406.00;;;21.38;52.69
65905;BME280;56275;49.802;24.020;2022-09-24T04:33:06;97406.00;;;21.38;52.54
65905;BME280;56275;49.802;24.020;2022-09-24T04:35:51;97409.56;;;21.37;52.62
65905;BME280;56275;49.802;24.020;2022-09-24T04:38:43;97408.66;;;21.38;52.58
65905;BME280;56275;49.802;24.020;2022-09-24T04:41:37;97410.44;;;21.36;52.38
65905;BME280;56275;49.802;24.020;2022-09-24T04:44:23;97408.69;;;21.36;52.39
65905;BME280;56275;49.802;24.020;2022-09-24T04:47:08;97409.56;;;21.37;52.57
65905;BME280;56275;49.802;24.020;2022-09-24T04:49:54;97407.81;;;21.36;52.34
65905;BME280;56275;49.802;24.020;2022-09-24T04:52:39;97413.09;;;21.36;52.48
65905;BME280;56275;49.802;24.020;2022-09-24T04:55:30;97409.59;;;21.35;52.34
65905;BME280;56275;49.802;24.020;2022-09-24T04:58:16;97409.59;;;21.35;52.58
65905;BME280;56275;49.802;24.020;2022-09-24T05:01:01;97408.69;;;21.36;52.58
65905;BME280;56275;49.802;24.020;2022-09-24T05:03:48;97404.31;;;21.35;52.38
65905;BME280;56275;49.802;24.020;2022-09-24T05:06:34;97410.44;;;21.36;52.30
65905;BME280;56275;49.802;24.020;2022-09-24T05:09:26;97410.44;;;21.36;52.41
65905;BME280;56275;49.802;24.020;2022-09-24T05:12:11;97409.56;;;21.37;52.53
65905;BME280;56275;49.802;24.020;2022-09-24T05:14:57;97411.31;;;21.36;52.42
65905;BME280;56275;49.802;24.020;2022-09-24T05:17:42;97412.22;;;21.35;52.26
65905;BME280;56275;49.802;24.020;2022-09-24T05:20:28;97405.16;;;21.36;52.18
65905;BME280;56275;49.802;24.020;2022-09-24T05:23:19;97413.97;;;21.36;52.45
65905;BME280;56275;49.802;24.020;2022-09-24T05:26:45;97413.13;;;21.34;52.37
65905;BME280;56275;49.802;24.020;2022-09-24T05:29:55;97423.72;;;21.34;52.46
65905;BME280;56275;49.802;24.020;2022-09-24T05:32:47;97424.56;;;21.35;52.34
65905;BME280;56275;49.802;24.020;2022-09-24T05:35:42;97425.44;;;21.35;52.40
65905;BME280;56275;49.802;24.020;2022-09-24T05:38:33;97421.94;;;21.35;52.53
65905;BME280;56275;49.802;24.020;2022-09-24T05:41:18;97420.13;;;21.37;52.29
65905;BME280;56275;49.802;24.020;2022-09-24T05:44:04;97430.66;;;21.38;52.17
65905;BME280;56275;49.802;24.020;2022-09-24T05:46:56;97421.84;;;21.38;52.33
65905;BME280;56275;49.802;24.020;2022-09-24T05:49:42;97420.09;;;21.38;52.36
65905;BME280;56275;49.802;24.020;2022-09-24T05:52:27;97427.97;;;21.40;52.33
65905;BME280;56275;49.802;24.020;2022-09-24T05:55:12;97433.25;;;21.40;52.37
65905;BME280;56275;49.802;24.020;2022-09-24T05:58:09;97429.75;;;21.41;52.34
65905;BME280;56275;49.802;24.020;2022-09-24T06:01:01;97421.81;;;21.39;52.21
65905;BME280;56275;49.802;24.020;2022-09-24T06:03:53;97430.63;;;21.40;52.23
65905;BME280;56275;49.802;24.020;2022-09-24T06:06:45;97426.19;;;21.40;52.27
65905;BME280;56275;49.802;24.020;2022-09-24T06:09:36;97433.25;;;21.41;52.33
65905;BME280;56275;49.802;24.020;2022-09-24T06:12:28;97424.47;;;21.41;52.16
65905;BME280;56275;49.802;24.020;2022-09-24T06:15:20;97422.69;;;21.41;52.40
65905;BME280;56275;49.802;24.020;2022-09-24T06:18:12;97433.25;;;21.41;52.26
65905;BME280;56275;49.802;24.020;2022-09-24T06:21:06;97425.28;;;21.43;52.32
65905;BME280;56275;49.802;24.020;2022-09-24T06:23:58;97426.19;;;21.42;52.27
65905;BME280;56275;49.802;24.020;2022-09-24T06:26:50;97430.56;;;21.43;52.23
65905;BME280;56275;49.802;24.020;2022-09-24T06:29:42;97430.53;;;21.44;52.06
65905;BME280;56275;49.802;24.020;2022-09-24T06:32:27;97427.91;;;21.44;52.18
65905;BME280;56275;49.802;24.020;2022-09-24T06:35:19;97431.41;;;21.45;52.25
65905;BME280;56275;49.802;24.020;2022-09-24T06:38:06;97434.94;;;21.45;52.17
65905;BME280;56275;49.802;24.020;2022-09-24T06:40:52;97441.09;;;21.46;52.13
65905;BME280;56275;49.802;24.020;2022-09-24T06:43:37;97443.72;;;21.47;52.09
65905;BME280;56275;49.802;24.020;2022-09-24T06:46:28;97450.75;;;21.48;52.18
65905;BME280;56275;49.802;24.020;2022-09-24T06:49:20;97448.09;;;21.48;52.06
65905;BME280;56275;49.802;24.020;2022-09-24T06:52:12;97446.38;;;21.47;52.05
65905;BME280;56275;49.802;24.020;2022-09-24T06:55:04;97456.91;;;21.49;52.21
65905;BME280;56275;49.802;24.020;2022-09-24T06:58:04;97451.63;;;21.49;52.23
65905;BME280;56275;49.802;24.020;2022-09-24T07:00:58;97453.38;;;21.48;52.23
65905;BME280;56275;49.802;24.020;2022-09-24T07:03:50;97445.47;;;21.48;52.16
65905;BME280;56275;49.802;24.020;2022-09-24T07:06:41;97448.94;;;21.50;52.25
65905;BME280;56275;49.802;24.020;2022-09-24T07:09:55;97443.66;;;21.50;52.08
65905;BME280;56275;49.802;24.020;2022-09-24T07:12:47;97443.56;;;21.53;52.20
65905;BME280;56275;49.802;24.020;2022-09-24T07:15:38;97448.00;;;21.55;52.15
65905;BME280;56275;49.802;24.020;2022-09-24T07:18:30;97447.94;;;21.56;52.43
65905;BME280;56275;49.802;24.020;2022-09-24T07:21:20;97444.31;;;21.62;52.27
65905;BME280;56275;49.802;24.020;2022-09-24T07:24:11;97450.44;;;21.64;52.30
65905;BME280;56275;49.802;24.020;2022-09-24T07:27:06;97449.50;;;21.68;52.24
65905;BME280;56275;49.802;24.020;2022-09-24T07:29:58;97471.47;;;21.70;52.18
65905;BME280;56275;49.802;24.020;2022-09-24T07:32:54;97452.03;;;21.72;52.09
65905;BME280;56275;49.802;24.020;2022-09-24T07:35:46;97451.13;;;21.75;52.40
65905;BME280;56275;49.802;24.020;2022-09-24T07:38:37;97443.16;;;21.76;52.14
65905;BME280;56275;49.802;24.020;2022-09-24T07:41:29;97444.94;;;21.76;51.96
65905;BME280;56275;49.802;24.020;2022-09-24T07:44:21;97457.25;;;21.77;52.13
65905;BME280;56275;49.802;24.020;2022-09-24T07:47:14;97452.00;;;21.75;52.30
65905;BME280;56275;49.802;24.020;2022-09-24T07:50:05;97456.41;;;21.75;52.09
65905;BME280;56275;49.802;24.020;2022-09-24T07:52:57;97465.22;;;21.75;52.34
65905;BME280;56275;49.802;24.020;2022-09-24T07:55:49;97460.78;;;21.76;52.24
65905;BME280;56275;49.802;24.020;2022-09-24T07:58:41;97461.53;;;21.81;52.44
65905;BME280;56275;49.802;24.020;2022-09-24T08:01:33;97452.63;;;21.88;52.54
65905;BME280;56275;49.802;24.020;2022-09-24T08:04:25;97456.81;;;21.98;52.58
65905;BME280;56275;49.802;24.020;2022-09-24T08:07:17;97462.78;;;22.10;52.60
65905;BME280;56275;49.802;24.020;2022-09-24T08:10:08;97462.53;;;22.20;52.28
65905;BME280;56275;49.802;24.020;2022-09-24T08:13:03;97461.44;;;22.30;52.41
65905;BME280;56275;49.802;24.020;2022-09-24T08:15:57;97466.50;;;22.41;52.45
65905;BME280;56275;49.802;24.020;2022-09-24T08:18:52;97471.56;;;22.52;52.27
65905;BME280;56275;49.802;24.020;2022-09-24T08:21:44;97470.47;;;22.60;52.29
65905;BME280;56275;49.802;24.020;2022-09-24T08:24:34;97474.66;;;22.69;51.97
65905;BME280;56275;49.802;24.020;2022-09-24T08:27:26;97476.31;;;22.76;52.18
65905;BME280;56275;49.802;24.020;2022-09-24T08:30:18;97478.81;;;22.81;51.86
65905;BME280;56275;49.802;24.020;2022-09-24T08:33:11;97472.59;;;22.83;51.73
65905;BME280;56275;49.802;24.020;2022-09-24T08:36:05;97471.63;;;22.87;51.60
65905;BME280;56275;49.802;24.020;2022-09-24T08:38:57;97469.84;;;22.88;51.41
65905;BME280;56275;49.802;24.020;2022-09-24T08:42:00;97473.41;;;22.87;51.33
65905;BME280;56275;49.802;24.020;2022-09-24T08:44:52;97464.59;;;22.85;51.40
65905;BME280;56275;49.802;24.020;2022-09-24T08:48:18;97465.53;;;22.82;51.56
65905;BME280;56275;49.802;24.020;2022-09-24T08:51:15;97465.66;;;22.78;51.19
65905;BME280;56275;49.802;24.020;2022-09-24T08:54:13;97472.78;;;22.74;51.20
65905;BME280;56275;49.802;24.020;2022-09-24T08:57:11;97472.00;;;22.71;51.27
65905;BME280;56275;49.802;24.020;2022-09-24T09:00:04;97477.38;;;22.68;51.14
65905;BME280;56275;49.802;24.020;2022-09-24T09:03:08;97471.25;;;22.66;51.10
65905;BME280;56275;49.802;24.020;2022-09-24T09:09:20;97468.72;;;22.59;50.94
65905;BME280;56275;49.802;24.020;2022-09-24T09:12:33;97470.59;;;22.54;51.23
65905;BME280;56275;49.802;24.020;2022-09-24T09:15:33;97478.63;;;22.51;50.92
65905;BME280;56275;49.802;24.020;2022-09-24T09:18:30;97470.75;;;22.48;51.17
65905;BME280;56275;49.802;24.020;2022-09-24T09:21:43;97474.38;;;22.44;51.22
65905;BME280;56275;49.802;24.020;2022-09-24T09:24:44;97468.25;;;22.42;51.08
65905;BME280;56275;49.802;24.020;2022-09-24T09:27:38;97470.00;;;22.42;50.97
65905;BME280;56275;49.802;24.020;2022-09-24T09:30:52;97471.78;;;22.43;51.20
65905;BME280;56275;49.802;24.020;2022-09-24T09:36:57;97468.97;;;22.49;51.39
65905;BME280;56275;49.802;24.020;2022-09-24T20:43:45;97440.53;;;20.13;52.40
65905;BME280;56275;49.802;24.020;2022-09-24T20:46:37;97436.75;;;20.31;52.42
65905;BME280;56275;49.802;24.020;2022-09-24T20:49:29;97439.13;;;20.51;52.62
65905;BME280;56275;49.802;24.020;2022-09-24T20:52:21;97449.41;;;20.70;52.50
65905;BME280;56275;49.802;24.020;2022-09-24T20:55:12;97448.28;;;20.87;52.56
65905;BME280;56275;49.802;24.020;2022-09-24T20:58:00;97446.28;;;20.99;52.38
65905;BME280;56275;49.802;24.020;2022-09-24T21:00:52;97443.47;;;21.10;52.51
65905;BME280;56275;49.802;24.020;2022-09-24T21:03:47;97453.00;;;21.20;52.54
65905;BME280;56275;49.802;24.020;2022-09-24T21:06:34;97451.13;;;21.25;52.45
65905;BME280;56275;49.802;24.020;2022-09-24T21:09:19;97449.22;;;21.34;52.60
65905;BME280;56275;49.802;24.020;2022-09-24T21:12:11;97449.16;;;21.38;52.24
65905;BME280;56275;49.802;24.020;2022-09-24T21:15:02;97458.78;;;21.42;52.38
65905;BME280;56275;49.802;24.020;2022-09-24T21:17:54;97461.34;;;21.45;52.47
65905;BME280;56275;49.802;24.020;2022-09-24T21:20:45;97456.03;;;21.48;52.22
65905;BME280;56275;49.802;24.020;2022-09-24T21:23:37;97455.97;;;21.51;52.31
65905;BME280;56275;49.802;24.020;2022-09-24T21:26:32;97449.75;;;21.54;52.09
65905;BME280;56275;49.802;24.020;2022-09-24T21:29:25;97457.66;;;21.56;52.25
65905;BME280;56275;49.802;24.020;2022-09-24T21:32:17;97453.22;;;21.58;52.15
65905;BME280;56275;49.802;24.020;2022-09-24T21:35:09;97451.44;;;21.58;52.20
65905;BME280;56275;49.802;24.020;2022-09-24T21:38:00;97457.53;;;21.60;52.11
65905;BME280;56275;49.802;24.020;2022-09-24T21:40:52;97446.97;;;21.62;51.91
65905;BME280;56275;49.802;24.020;2022-09-24T21:43:43;97444.31;;;21.62;51.69
65905;BME280;56275;49.802;24.020;2022-09-24T21:46:36;97436.34;;;21.63;52.04
65905;BME280;56275;49.802;24.020;2022-09-24T21:49:29;97439.84;;;21.65;52.01
65905;BME280;56275;49.802;24.020;2022-09-24T21:52:27;97437.19;;;21.65;51.96
65905;BME280;56275;49.802;24.020;2022-09-24T21:55:21;97441.56;;;21.68;51.91
65905;BME280;56275;49.802;24.020;2022-09-24T21:58:13;97435.38;;;21.67;51.99
65905;BME280;56275;49.802;24.020;2022-09-24T22:04:10;97430.94;;;21.69;51.92
65905;BME280;56275;49.802;24.020;2022-09-24T22:07:02;97425.66;;;21.69;51.88
65905;BME280;56275;49.802;24.020;2022-09-24T22:09:53;97428.28;;;21.71;52.07
65905;BME280;56275;49.802;24.020;2022-09-24T22:12:45;97422.97;;;21.71;51.85
65905;BME280;56275;49.802;24.020;2022-09-24T22:15:37;97422.97;;;21.71;52.04
65905;BME280;56275;49.802;24.020;2022-09-24T22:18:29;97418.56;;;21.71;51.96
65905;BME280;56275;49.802;24.020;2022-09-24T22:21:21;97416.78;;;21.72;51.84
65905;BME280;56275;49.802;24.020;2022-09-24T22:24:06;97414.13;;;21.72;51.74
65905;BME280;56275;49.802;24.020;2022-09-24T22:26:51;97407.06;;;21.72;51.80
65905;BME280;56275;49.802;24.020;2022-09-24T22:29:37;97407.97;;;21.71;51.89
65905;BME280;56275;49.802;24.020;2022-09-24T22:32:22;97406.22;;;21.72;51.96
65905;BME280;56275;49.802;24.020;2022-09-24T22:35:09;97404.41;;;21.74;52.18
65905;BME280;56275;49.802;24.020;2022-09-24T22:38:13;97403.53;;;21.73;51.96
65905;BME280;56275;49.802;24.020;2022-09-24T22:41:00;97396.47;;;21.74;51.90
65905;BME280;56275;49.802;24.020;2022-09-24T22:43:52;97393.81;;;21.74;51.96
65905;BME280;56275;49.802;24.020;2022-09-24T22:46:43;97394.72;;;21.74;51.75
65905;BME280;56275;49.802;24.020;2022-09-24T22:49:34;97403.53;;;21.75;51.87
65905;BME280;56275;49.802;24.020;2022-09-24T22:52:28;97399.09;;;21.75;51.77
65905;BME280;56275;49.802;24.020;2022-09-24T22:55:20;97400.88;;;21.75;51.69
65905;BME280;56275;49.802;24.020;2022-09-24T22:58:05;97410.53;;;21.76;51.83
65905;BME280;56275;49.802;24.020;2022-09-24T23:00:50;97405.28;;;21.74;51.85
65905;BME280;56275;49.802;24.020;2022-09-24T23:03:42;97401.75;;;21.75;51.76
65905;BME280;56275;49.802;24.020;2022-09-24T23:06:28;97404.38;;;21.75;51.76
65905;BME280;56275;49.802;24.020;2022-09-24T23:09:15;97402.66;;;21.74;51.76
65905;BME280;56275;49.802;24.020;2022-09-24T23:12:00;97402.63;;;21.76;51.63
65905;BME280;56275;49.802;24.020;2022-09-24T23:14:45;97399.09;;;21.75;51.96
65905;BME280;56275;49.802;24.020;2022-09-24T23:17:30;97399.97;;;21.76;51.86
65905;BME280;56275;49.802;24.020;2022-09-24T23:20:21;97391.16;;;21.75;51.64
65905;BME280;56275;49.802;24.020;2022-09-24T23:23:12;97390.28;;;21.75;51.82
65905;BME280;56275;49.802;24.020;2022-09-24T23:26:09;97394.72;;;21.74;51.83
65905;BME280;56275;49.802;24.020;2022-09-24T23:28:55;97400.88;;;21.75;51.64
65905;BME280;56275;49.802;24.020;2022-09-24T23:31:41;97400.00;;;21.74;51.83
65905;BME280;56275;49.802;24.020;2022-09-24T23:34:26;97405.28;;;21.74;51.61
65905;BME280;56275;49.802;24.020;2022-09-24T23:37:11;97392.06;;;21.74;51.64
65905;BME280;56275;49.802;24.020;2022-09-24T23:39:56;97394.72;;;21.74;51.61
65905;BME280;56275;49.802;24.020;2022-09-24T23:42:41;97384.13;;;21.74;51.60
65905;BME280;56275;49.802;24.020;2022-09-24T23:45:26;97386.78;;;21.74;51.66
65905;BME280;56275;49.802;24.020;2022-09-24T23:48:12;97385.88;;;21.75;51.75
65905;BME280;56275;49.802;24.020;2022-09-24T23:50:57;97385.00;;;21.75;51.60
65905;BME280;56275;49.802;24.020;2022-09-24T23:53:43;97383.22;;;21.75;51.59
65905;BME280;56275;49.802;24.020;2022-09-24T23:56:28;97385.88;;;21.75;51.81
65905;BME280;56275;49.802;24.020;2022-09-24T23:59:13;97383.22;;;21.75;51.94
